sensor_id;sensor_type;location;lat;lon;timestamp;P1;durP1;ratioP1;P2;durP2;ratioP2
6288;SDS011;3177;49.880;8.836;2023-11-21T00:01:05;2.50;;;1.90;;
6288;SDS011;3177;49.880;8.836;2023-11-21T00:03:34;2.37;;;2.17;;
6288;SDS011;3177;49.880;8.836;2023-11-21T00:06:06;2.37;;;2.20;;
6288;SDS011;3177;49.880;8.836;2023-11-21T00:08:36;2.00;;;1.90;;
6288;SDS011;3177;49.880;8.836;2023-11-21T00:11:05;1.97;;;1.87;;
6288;SDS011;3177;49.880;8.836;2023-11-21T00:13:33;4.57;;;2.07;;
6288;SDS011;3177;49.880;8.836;2023-11-21T00:16:03;2.40;;;1.90;;
6288;SDS011;3177;49.880;8.836;2023-11-21T00:18:36;3.07;;;2.00;;
6288;SDS011;3177;49.880;8.836;2023-11-21T00:21:06;2.47;;;2.00;;
6288;SDS011;3177;49.880;8.836;2023-11-21T00:23:35;2.07;;;1.83;;
6288;SDS011;3177;49.880;8.836;2023-11-21T00:26:03;2.10;;;2.00;;
6288;SDS011;3177;49.880;8.836;2023-11-21T00:28:31;2.60;;;2.00;;
6288;SDS011;3177;49.880;8.836;2023-11-21T00:30:59;2.63;;;1.83;;
6288;SDS011;3177;49.880;8.836;2023-11-21T00:33:31;3.13;;;2.13;;
6288;SDS011;3177;49.880;8.836;2023-11-21T00:36:01;2.00;;;1.90;;
6288;SDS011;3177;49.880;8.836;2023-11-21T00:38:29;3.33;;;2.00;;
6288;SDS011;3177;49.880;8.836;2023-11-21T00:41:01;2.27;;;2.00;;
6288;SDS011;3177;49.880;8.836;2023-11-21T00:43:31;2.23;;;2.13;;
6288;SDS011;3177;49.880;8.836;2023-11-21T00:45:59;2.60;;;2.07;;
6288;SDS011;3177;49.880;8.836;2023-11-21T00:48:29;3.30;;;2.07;;
6288;SDS011;3177;49.880;8.836;2023-11-21T00:50:59;1.90;;;1.80;;
6288;SDS011;3177;49.880;8.836;2023-11-21T00:53:27;2.10;;;2.00;;
6288;SDS011;3177;49.880;8.836;2023-11-21T00:55:57;2.47;;;2.27;;
6288;SDS011;3177;49.880;8.836;2023-11-21T00:58:29;2.33;;;2.03;;
6288;SDS011;3177;49.880;8.836;2023-11-21T01:00:57;2.30;;;2.10;;
6288;SDS011;3177;49.880;8.836;2023-11-21T01:03:28;2.20;;;2.03;;
6288;SDS011;3177;49.880;8.836;2023-11-21T01:05:56;2.00;;;1.90;;
6288;SDS011;3177;49.880;8.836;2023-11-21T01:08:24;1.77;;;1.67;;
6288;SDS011;3177;49.880;8.836;2023-11-21T01:10:52;3.80;;;2.07;;
6288;SDS011;3177;49.880;8.836;2023-11-21T01:13:23;2.33;;;2.10;;
6288;SDS011;3177;49.880;8.836;2023-11-21T01:15:56;2.30;;;2.10;;
6288;SDS011;3177;49.880;8.836;2023-11-21T01:18:26;2.00;;;1.90;;
6288;SDS011;3177;49.880;8.836;2023-11-21T01:20:56;1.90;;;1.80;;
6288;SDS011;3177;49.880;8.836;2023-11-21T01:23:25;2.90;;;1.80;;
6288;SDS011;3177;49.880;8.836;2023-11-21T01:26:03;1.93;;;1.83;;
6288;SDS011;3177;49.880;8.836;2023-11-21T01:28:32;1.90;;;1.80;;
6288;SDS011;3177;49.880;8.836;2023-11-21T01:31:03;1.67;;;1.67;;
6288;SDS011;3177;49.880;8.836;2023-11-21T01:33:33;3.17;;;1.80;;
6288;SDS011;3177;49.880;8.836;2023-11-21T01:36:01;1.80;;;1.70;;
6288;SDS011;3177;49.880;8.836;2023-11-21T01:38:29;3.20;;;2.07;;
6288;SDS011;3177;49.880;8.836;2023-11-21T01:41:00;3.50;;;1.90;;
6288;SDS011;3177;49.880;8.836;2023-11-21T01:43:29;2.10;;;1.80;;
6288;SDS011;3177;49.880;8.836;2023-11-21T01:46:00;2.53;;;1.53;;
6288;SDS011;3177;49.880;8.836;2023-11-21T01:48:29;1.60;;;1.60;;
6288;SDS011;3177;49.880;8.836;2023-11-21T01:51:00;2.00;;;1.80;;
6288;SDS011;3177;49.880;8.836;2023-11-21T01:53:31;1.87;;;1.57;;
6288;SDS011;3177;49.880;8.836;2023-11-21T01:55:59;1.60;;;1.50;;
6288;SDS011;3177;49.880;8.836;2023-11-21T01:58:30;1.77;;;1.70;;
6288;SDS011;3177;49.880;8.836;2023-11-21T02:01:01;1.50;;;1.50;;
6288;SDS011;3177;49.880;8.836;2023-11-21T02:03:34;1.60;;;1.50;;
6288;SDS011;3177;49.880;8.836;2023-11-21T02:06:06;2.70;;;1.83;;
6288;SDS011;3177;49.880;8.836;2023-11-21T02:08:38;3.13;;;1.70;;
6288;SDS011;3177;49.880;8.836;2023-11-21T02:11:07;1.90;;;1.70;;
6288;SDS011;3177;49.880;8.836;2023-11-21T02:13:41;1.70;;;1.60;;
6288;SDS011;3177;49.880;8.836;2023-11-21T02:16:12;2.07;;;1.87;;
6288;SDS011;3177;49.880;8.836;2023-11-21T02:18:48;1.93;;;1.70;;
6288;SDS011;3177;49.880;8.836;2023-11-21T02:21:15;3.53;;;1.70;;
6288;SDS011;3177;49.880;8.836;2023-11-21T02:23:46;1.57;;;1.47;;
6288;SDS011;3177;49.880;8.836;2023-11-21T02:26:17;1.37;;;1.37;;
6288;SDS011;3177;49.880;8.836;2023-11-21T02:28:48;1.70;;;1.60;;
6288;SDS011;3177;49.880;8.836;2023-11-21T02:31:23;1.30;;;1.20;;
6288;SDS011;3177;49.880;8.836;2023-11-21T02:33:55;1.40;;;1.40;;
6288;SDS011;3177;49.880;8.836;2023-11-21T02:36:27;1.40;;;1.40;;
6288;SDS011;3177;49.880;8.836;2023-11-21T02:39:00;2.27;;;1.50;;
6288;SDS011;3177;49.880;8.836;2023-11-21T02:41:30;1.87;;;1.30;;
6288;SDS011;3177;49.880;8.836;2023-11-21T02:44:01;1.60;;;1.50;;
6288;SDS011;3177;49.880;8.836;2023-11-21T02:46:29;2.10;;;1.60;;
6288;SDS011;3177;49.880;8.836;2023-11-21T02:49:00;1.50;;;1.50;;
6288;SDS011;3177;49.880;8.836;2023-11-21T02:51:29;1.53;;;1.53;;
6288;SDS011;3177;49.880;8.836;2023-11-21T02:54:04;1.90;;;1.73;;
6288;SDS011;3177;49.880;8.836;2023-11-21T02:56:36;1.50;;;1.40;;
6288;SDS011;3177;49.880;8.836;2023-11-21T02:59:05;1.70;;;1.60;;
6288;SDS011;3177;49.880;8.836;2023-11-21T03:01:33;1.60;;;1.60;;
6288;SDS011;3177;49.880;8.836;2023-11-21T03:04:01;2.37;;;1.77;;
6288;SDS011;3177;49.880;8.836;2023-11-21T03:06:31;5.50;;;1.70;;
6288;SDS011;3177;49.880;8.836;2023-11-21T03:09:04;1.50;;;1.50;;
6288;SDS011;3177;49.880;8.836;2023-11-21T03:11:39;4.40;;;1.70;;
6288;SDS011;3177;49.880;8.836;2023-11-21T03:14:08;1.80;;;1.70;;
6288;SDS011;3177;49.880;8.836;2023-11-21T03:16:37;1.70;;;1.60;;
6288;SDS011;3177;49.880;8.836;2023-11-21T03:19:06;1.90;;;1.80;;
6288;SDS011;3177;49.880;8.836;2023-11-21T03:21:37;2.00;;;1.90;;
6288;SDS011;3177;49.880;8.836;2023-11-21T03:24:06;4.77;;;2.10;;
6288;SDS011;3177;49.880;8.836;2023-11-21T03:26:34;3.33;;;1.87;;
6288;SDS011;3177;49.880;8.836;2023-11-21T03:29:08;2.13;;;2.03;;
6288;SDS011;3177;49.880;8.836;2023-11-21T03:31:36;1.87;;;1.77;;
6288;SDS011;3177;49.880;8.836;2023-11-21T03:34:09;2.90;;;1.97;;
6288;SDS011;3177;49.880;8.836;2023-11-21T03:36:42;5.27;;;2.27;;
6288;SDS011;3177;49.880;8.836;2023-11-21T03:39:11;1.93;;;1.83;;
6288;SDS011;3177;49.880;8.836;2023-11-21T03:41:42;3.43;;;2.00;;
6288;SDS011;3177;49.880;8.836;2023-11-21T03:44:14;1.97;;;1.87;;
6288;SDS011;3177;49.880;8.836;2023-11-21T03:46:52;2.90;;;2.00;;
6288;SDS011;3177;49.880;8.836;2023-11-21T03:49:20;2.07;;;1.97;;
6288;SDS011;3177;49.880;8.836;2023-11-21T03:51:56;1.90;;;1.80;;
6288;SDS011;3177;49.880;8.836;2023-11-21T03:54:27;1.80;;;1.70;;
6288;SDS011;3177;49.880;8.836;2023-11-21T03:56:58;2.67;;;2.00;;
6288;SDS011;3177;49.880;8.836;2023-11-21T03:59:34;2.17;;;2.07;;
6288;SDS011;3177;49.880;8.836;2023-11-21T04:02:03;4.37;;;2.30;;
6288;SDS011;3177;49.880;8.836;2023-11-21T04:04:34;2.30;;;2.13;;
6288;SDS011;3177;49.880;8.836;2023-11-21T04:07:05;2.43;;;2.30;;
6288;SDS011;3177;49.880;8.836;2023-11-21T04:09:42;2.10;;;1.93;;
6288;SDS011;3177;49.880;8.836;2023-11-21T04:12:14;1.93;;;1.83;;
6288;SDS011;3177;49.880;8.836;2023-11-21T04:14:44;3.60;;;2.07;;
6288;SDS011;3177;49.880;8.836;2023-11-21T04:17:17;2.63;;;2.23;;
6288;SDS011;3177;49.880;8.836;2023-11-21T04:19:45;1.87;;;1.73;;
6288;SDS011;3177;49.880;8.836;2023-11-21T04:22:16;2.03;;;1.93;;
6288;SDS011;3177;49.880;8.836;2023-11-21T04:24:47;5.33;;;1.90;;
6288;SDS011;3177;49.880;8.836;2023-11-21T04:27:15;2.57;;;2.37;;
6288;SDS011;3177;49.880;8.836;2023-11-21T04:29:49;2.03;;;1.90;;
6288;SDS011;3177;49.880;8.836;2023-11-21T04:32:18;2.00;;;1.90;;
6288;SDS011;3177;49.880;8.836;2023-11-21T04:34:54;2.73;;;2.10;;
6288;SDS011;3177;49.880;8.836;2023-11-21T04:37:27;3.50;;;2.17;;
6288;SDS011;3177;49.880;8.836;2023-11-21T04:40:00;2.33;;;2.13;;
6288;SDS011;3177;49.880;8.836;2023-11-21T04:42:33;2.27;;;2.07;;
6288;SDS011;3177;49.880;8.836;2023-11-21T04:45:07;3.20;;;2.30;;
6288;SDS011;3177;49.880;8.836;2023-11-21T04:47:37;2.97;;;2.20;;
6288;SDS011;3177;49.880;8.836;2023-11-21T04:50:05;2.87;;;1.87;;
6288;SDS011;3177;49.880;8.836;2023-11-21T04:52:35;2.03;;;1.93;;
6288;SDS011;3177;49.880;8.836;2023-11-21T04:55:05;1.80;;;1.70;;
6288;SDS011;3177;49.880;8.836;2023-11-21T04:57:37;3.53;;;1.90;;
6288;SDS011;3177;49.880;8.836;2023-11-21T05:00:11;4.63;;;1.67;;
6288;SDS011;3177;49.880;8.836;2023-11-21T05:02:41;1.50;;;1.50;;
6288;SDS011;3177;49.880;8.836;2023-11-21T05:05:15;1.60;;;1.50;;
6288;SDS011;3177;49.880;8.836;2023-11-21T05:07:42;1.40;;;1.40;;
6288;SDS011;3177;49.880;8.836;2023-11-21T05:10:13;1.27;;;1.20;;
6288;SDS011;3177;49.880;8.836;2023-11-21T05:12:41;1.40;;;1.40;;
6288;SDS011;3177;49.880;8.836;2023-11-21T05:15:15;1.40;;;1.40;;
6288;SDS011;3177;49.880;8.836;2023-11-21T05:17:43;1.43;;;1.33;;
6288;SDS011;3177;49.880;8.836;2023-11-21T05:20:12;1.50;;;1.50;;
6288;SDS011;3177;49.880;8.836;2023-11-21T05:22:43;1.70;;;1.60;;
6288;SDS011;3177;49.880;8.836;2023-11-21T05:25:16;1.63;;;1.57;;
6288;SDS011;3177;49.880;8.836;2023-11-21T05:27:44;1.77;;;1.67;;
6288;SDS011;3177;49.880;8.836;2023-11-21T05:30:17;1.70;;;1.70;;
6288;SDS011;3177;49.880;8.836;2023-11-21T05:32:49;1.90;;;1.80;;
6288;SDS011;3177;49.880;8.836;2023-11-21T05:35:21;1.97;;;1.87;;
6288;SDS011;3177;49.880;8.836;2023-11-21T05:37:50;2.20;;;2.00;;
6288;SDS011;3177;49.880;8.836;2023-11-21T05:40:18;2.10;;;2.00;;
6288;SDS011;3177;49.880;8.836;2023-11-21T05:42:47;1.97;;;1.87;;
6288;SDS011;3177;49.880;8.836;2023-11-21T05:45:18;2.20;;;2.10;;
6288;SDS011;3177;49.880;8.836;2023-11-21T05:47:48;2.80;;;2.60;;
6288;SDS011;3177;49.880;8.836;2023-11-21T05:50:17;3.53;;;2.70;;
6288;SDS011;3177;49.880;8.836;2023-11-21T05:52:46;3.07;;;2.77;;
6288;SDS011;3177;49.880;8.836;2023-11-21T05:55:18;2.70;;;2.50;;
6288;SDS011;3177;49.880;8.836;2023-11-21T05:57:51;2.57;;;2.37;;
6288;SDS011;3177;49.880;8.836;2023-11-21T06:00:28;2.60;;;2.40;;
6288;SDS011;3177;49.880;8.836;2023-11-21T06:02:59;5.40;;;2.73;;
6288;SDS011;3177;49.880;8.836;2023-11-21T06:05:26;3.57;;;3.00;;
6288;SDS011;3177;49.880;8.836;2023-11-21T06:07:58;3.20;;;2.90;;
6288;SDS011;3177;49.880;8.836;2023-11-21T06:10:26;3.80;;;3.03;;
6288;SDS011;3177;49.880;8.836;2023-11-21T06:12:55;3.20;;;3.00;;
6288;SDS011;3177;49.880;8.836;2023-11-21T06:15:25;3.93;;;3.57;;
6288;SDS011;3177;49.880;8.836;2023-11-21T06:17:54;5.50;;;3.00;;
6288;SDS011;3177;49.880;8.836;2023-11-21T06:20:23;7.40;;;3.27;;
6288;SDS011;3177;49.880;8.836;2023-11-21T06:22:53;3.33;;;3.03;;
6288;SDS011;3177;49.880;8.836;2023-11-21T06:25:21;4.00;;;3.13;;
6288;SDS011;3177;49.880;8.836;2023-11-21T06:27:52;6.33;;;3.30;;
6288;SDS011;3177;49.880;8.836;2023-11-21T06:30:22;3.77;;;3.43;;
6288;SDS011;3177;49.880;8.836;2023-11-21T06:32:49;3.87;;;3.33;;
6288;SDS011;3177;49.880;8.836;2023-11-21T06:35:18;4.07;;;3.50;;
6288;SDS011;3177;49.880;8.836;2023-11-21T06:37:45;4.80;;;3.50;;
6288;SDS011;3177;49.880;8.836;2023-11-21T06:40:13;3.93;;;3.60;;
6288;SDS011;3177;49.880;8.836;2023-11-21T06:42:41;5.53;;;4.03;;
6288;SDS011;3177;49.880;8.836;2023-11-21T06:45:09;4.10;;;3.70;;
6288;SDS011;3177;49.880;8.836;2023-11-21T06:47:36;5.90;;;4.20;;
6288;SDS011;3177;49.880;8.836;2023-11-21T06:50:05;4.67;;;4.23;;
6288;SDS011;3177;49.880;8.836;2023-11-21T06:52:33;4.53;;;3.93;;
6288;SDS011;3177;49.880;8.836;2023-11-21T06:55:01;4.40;;;4.00;;
6288;SDS011;3177;49.880;8.836;2023-11-21T06:57:29;4.77;;;3.80;;
6288;SDS011;3177;49.880;8.836;2023-11-21T06:59:56;3.67;;;3.23;;
6288;SDS011;3177;49.880;8.836;2023-11-21T07:02:23;5.63;;;3.10;;
6288;SDS011;3177;49.880;8.836;2023-11-21T07:04:50;4.63;;;3.50;;
6288;SDS011;3177;49.880;8.836;2023-11-21T07:07:18;3.53;;;2.80;;
6288;SDS011;3177;49.880;8.836;2023-11-21T07:09:46;3.07;;;2.77;;
6288;SDS011;3177;49.880;8.836;2023-11-21T07:12:14;2.90;;;2.70;;
6288;SDS011;3177;49.880;8.836;2023-11-21T07:14:41;2.80;;;2.60;;
6288;SDS011;3177;49.880;8.836;2023-11-21T07:17:09;4.37;;;3.10;;
6288;SDS011;3177;49.880;8.836;2023-11-21T07:19:37;4.47;;;2.87;;
6288;SDS011;3177;49.880;8.836;2023-11-21T07:22:04;2.87;;;2.50;;
6288;SDS011;3177;49.880;8.836;2023-11-21T07:24:31;3.57;;;3.13;;
6288;SDS011;3177;49.880;8.836;2023-11-21T07:26:59;3.27;;;2.97;;
6288;SDS011;3177;49.880;8.836;2023-11-21T07:29:27;4.43;;;3.60;;
6288;SDS011;3177;49.880;8.836;2023-11-21T07:31:54;4.40;;;4.00;;
6288;SDS011;3177;49.880;8.836;2023-11-21T07:34:21;4.07;;;3.50;;
6288;SDS011;3177;49.880;8.836;2023-11-21T07:36:48;4.77;;;4.07;;
6288;SDS011;3177;49.880;8.836;2023-11-21T07:39:15;5.57;;;4.37;;
6288;SDS011;3177;49.880;8.836;2023-11-21T07:41:43;7.73;;;3.97;;
6288;SDS011;3177;49.880;8.836;2023-11-21T07:44:14;6.33;;;4.67;;
6288;SDS011;3177;49.880;8.836;2023-11-21T07:46:42;6.27;;;5.30;;
6288;SDS011;3177;49.880;8.836;2023-11-21T07:49:09;6.57;;;4.83;;
6288;SDS011;3177;49.880;8.836;2023-11-21T07:51:36;6.90;;;5.23;;
6288;SDS011;3177;49.880;8.836;2023-11-21T07:54:03;7.10;;;5.13;;
6288;SDS011;3177;49.880;8.836;2023-11-21T07:56:31;7.90;;;5.77;;
6288;SDS011;3177;49.880;8.836;2023-11-21T07:58:58;10.77;;;6.47;;
6288;SDS011;3177;49.880;8.836;2023-11-21T08:01:26;7.60;;;5.40;;
6288;SDS011;3177;49.880;8.836;2023-11-21T08:03:54;7.87;;;5.83;;
6288;SDS011;3177;49.880;8.836;2023-11-21T08:06:24;10.03;;;5.97;;
6288;SDS011;3177;49.880;8.836;2023-11-21T08:08:51;9.67;;;5.70;;
6288;SDS011;3177;49.880;8.836;2023-11-21T08:11:18;9.80;;;6.20;;
6288;SDS011;3177;49.880;8.836;2023-11-21T08:13:46;11.83;;;6.60;;
6288;SDS011;3177;49.880;8.836;2023-11-21T08:16:13;10.03;;;6.33;;
6288;SDS011;3177;49.880;8.836;2023-11-21T08:18:43;10.00;;;6.13;;
6288;SDS011;3177;49.880;8.836;2023-11-21T08:21:12;12.20;;;6.77;;
6288;SDS011;3177;49.880;8.836;2023-11-21T08:23:39;15.33;;;6.67;;
6288;SDS011;3177;49.880;8.836;2023-11-21T08:26:06;9.30;;;6.40;;
6288;SDS011;3177;49.880;8.836;2023-11-21T08:28:33;10.03;;;6.63;;
6288;SDS011;3177;49.880;8.836;2023-11-21T08:31:00;9.53;;;6.43;;
6288;SDS011;3177;49.880;8.836;2023-11-21T08:33:29;10.17;;;6.13;;
6288;SDS011;3177;49.880;8.836;2023-11-21T08:35:57;10.93;;;5.47;;
6288;SDS011;3177;49.880;8.836;2023-11-21T08:38:26;8.80;;;6.07;;
6288;SDS011;3177;49.880;8.836;2023-11-21T08:40:53;12.20;;;6.67;;
6288;SDS011;3177;49.880;8.836;2023-11-21T08:43:21;11.03;;;6.43;;
6288;SDS011;3177;49.880;8.836;2023-11-21T08:45:49;10.20;;;6.20;;
6288;SDS011;3177;49.880;8.836;2023-11-21T08:48:16;11.87;;;6.63;;
6288;SDS011;3177;49.880;8.836;2023-11-21T08:50:43;12.10;;;6.47;;
6288;SDS011;3177;49.880;8.836;2023-11-21T08:53:12;11.93;;;7.03;;
6288;SDS011;3177;49.880;8.836;2023-11-21T08:55:39;12.50;;;7.40;;
6288;SDS011;3177;49.880;8.836;2023-11-21T08:58:06;11.60;;;6.63;;
6288;SDS011;3177;49.880;8.836;2023-11-21T09:00:33;12.30;;;6.47;;
6288;SDS011;3177;49.880;8.836;2023-11-21T09:03:00;11.63;;;6.83;;
6288;SDS011;3177;49.880;8.836;2023-11-21T09:05:28;22.23;;;11.23;;
6288;SDS011;3177;49.880;8.836;2023-11-21T09:07:55;12.83;;;7.67;;
6288;SDS011;3177;49.880;8.836;2023-11-21T09:10:24;10.93;;;7.03;;
6288;SDS011;3177;49.880;8.836;2023-11-21T09:12:51;9.90;;;6.80;;
6288;SDS011;3177;49.880;8.836;2023-11-21T09:15:18;11.70;;;6.73;;
6288;SDS011;3177;49.880;8.836;2023-11-21T09:17:45;9.47;;;5.90;;
6288;SDS011;3177;49.880;8.836;2023-11-21T09:20:12;7.87;;;5.93;;
6288;SDS011;3177;49.880;8.836;2023-11-21T09:22:40;9.60;;;5.97;;
6288;SDS011;3177;49.880;8.836;2023-11-21T09:25:07;14.50;;;6.50;;
6288;SDS011;3177;49.880;8.836;2023-11-21T09:27:36;7.93;;;5.83;;
6288;SDS011;3177;49.880;8.836;2023-11-21T09:30:03;8.30;;;6.10;;
6288;SDS011;3177;49.880;8.836;2023-11-21T09:32:30;10.30;;;5.80;;
6288;SDS011;3177;49.880;8.836;2023-11-21T09:34:57;9.07;;;5.73;;
6288;SDS011;3177;49.880;8.836;2023-11-21T09:37:27;8.60;;;5.57;;
6288;SDS011;3177;49.880;8.836;2023-11-21T09:39:54;8.50;;;5.53;;
6288;SDS011;3177;49.880;8.836;2023-11-21T09:42:22;7.03;;;5.13;;
6288;SDS011;3177;49.880;8.836;2023-11-21T09:44:54;8.97;;;5.47;;
6288;SDS011;3177;49.880;8.836;2023-11-21T09:47:24;7.83;;;5.63;;
6288;SDS011;3177;49.880;8.836;2023-11-21T09:49:51;5.73;;;4.70;;
6288;SDS011;3177;49.880;8.836;2023-11-21T09:52:22;6.00;;;5.00;;
6288;SDS011;3177;49.880;8.836;2023-11-21T09:54:50;6.50;;;5.10;;
6288;SDS011;3177;49.880;8.836;2023-11-21T09:57:19;4.93;;;4.37;;
6288;SDS011;3177;49.880;8.836;2023-11-21T09:59:47;8.07;;;5.33;;
6288;SDS011;3177;49.880;8.836;2023-11-21T10:02:19;6.37;;;4.73;;
6288;SDS011;3177;49.880;8.836;2023-11-21T10:04:47;5.57;;;4.27;;
6288;SDS011;3177;49.880;8.836;2023-11-21T10:07:15;8.27;;;4.80;;
6288;SDS011;3177;49.880;8.836;2023-11-21T10:09:44;5.77;;;4.17;;
6288;SDS011;3177;49.880;8.836;2023-11-21T10:12:11;6.17;;;4.43;;
6288;SDS011;3177;49.880;8.836;2023-11-21T10:14:40;7.73;;;4.37;;
6288;SDS011;3177;49.880;8.836;2023-11-21T10:17:08;6.20;;;4.37;;
6288;SDS011;3177;49.880;8.836;2023-11-21T10:19:39;4.50;;;4.10;;
6288;SDS011;3177;49.880;8.836;2023-11-21T10:22:06;5.07;;;4.23;;
6288;SDS011;3177;49.880;8.836;2023-11-21T10:24:34;5.67;;;4.00;;
6288;SDS011;3177;49.880;8.836;2023-11-21T10:27:02;4.87;;;3.67;;
6288;SDS011;3177;49.880;8.836;2023-11-21T10:29:29;4.67;;;4.20;;
6288;SDS011;3177;49.880;8.836;2023-11-21T10:32:00;9.13;;;4.43;;
6288;SDS011;3177;49.880;8.836;2023-11-21T10:34:28;4.63;;;3.83;;
6288;SDS011;3177;49.880;8.836;2023-11-21T10:36:57;7.43;;;4.00;;
6288;SDS011;3177;49.880;8.836;2023-11-21T10:39:24;4.23;;;3.57;;
6288;SDS011;3177;49.880;8.836;2023-11-21T10:41:55;5.60;;;3.70;;
6288;SDS011;3177;49.880;8.836;2023-11-21T10:44:22;4.43;;;3.47;;
6288;SDS011;3177;49.880;8.836;2023-11-21T10:46:50;5.30;;;3.80;;
6288;SDS011;3177;49.880;8.836;2023-11-21T10:49:20;6.60;;;4.07;;
6288;SDS011;3177;49.880;8.836;2023-11-21T10:51:49;6.07;;;4.10;;
6288;SDS011;3177;49.880;8.836;2023-11-21T10:54:19;6.33;;;3.93;;
6288;SDS011;3177;49.880;8.836;2023-11-21T10:56:48;3.97;;;3.50;;
6288;SDS011;3177;49.880;8.836;2023-11-21T10:59:16;4.07;;;3.50;;
6288;SDS011;3177;49.880;8.836;2023-11-21T11:01:44;4.13;;;3.37;;
6288;SDS011;3177;49.880;8.836;2023-11-21T11:04:11;4.97;;;3.97;;
6288;SDS011;3177;49.880;8.836;2023-11-21T11:06:41;5.17;;;3.97;;
6288;SDS011;3177;49.880;8.836;2023-11-21T11:09:09;7.70;;;4.07;;
6288;SDS011;3177;49.880;8.836;2023-11-21T11:11:39;4.20;;;3.80;;
6288;SDS011;3177;49.880;8.836;2023-11-21T11:14:09;4.07;;;3.67;;
6288;SDS011;3177;49.880;8.836;2023-11-21T11:16:38;5.70;;;4.00;;
6288;SDS011;3177;49.880;8.836;2023-11-21T11:19:06;3.87;;;3.40;;
6288;SDS011;3177;49.880;8.836;2023-11-21T11:21:36;4.83;;;3.93;;
6288;SDS011;3177;49.880;8.836;2023-11-21T11:24:18;3.67;;;3.37;;
6288;SDS011;3177;49.880;8.836;2023-11-21T11:26:53;5.87;;;4.30;;
6288;SDS011;3177;49.880;8.836;2023-11-21T11:29:23;4.97;;;3.80;;
6288;SDS011;3177;49.880;8.836;2023-11-21T11:32:00;6.23;;;3.93;;
6288;SDS011;3177;49.880;8.836;2023-11-21T11:34:30;4.07;;;3.67;;
6288;SDS011;3177;49.880;8.836;2023-11-21T11:37:00;5.03;;;3.50;;
6288;SDS011;3177;49.880;8.836;2023-11-21T11:39:27;6.33;;;3.53;;
6288;SDS011;3177;49.880;8.836;2023-11-21T11:41:56;3.60;;;3.27;;
6288;SDS011;3177;49.880;8.836;2023-11-21T11:47:13;4.80;;;3.83;;
6288;SDS011;3177;49.880;8.836;2023-11-21T11:49:47;3.93;;;3.00;;
6288;SDS011;3177;49.880;8.836;2023-11-21T11:52:37;4.53;;;3.83;;
6288;SDS011;3177;49.880;8.836;2023-11-21T11:55:06;3.63;;;3.00;;
6288;SDS011;3177;49.880;8.836;2023-11-21T11:57:36;6.30;;;3.40;;
6288;SDS011;3177;49.880;8.836;2023-11-21T12:00:11;8.20;;;3.33;;
6288;SDS011;3177;49.880;8.836;2023-11-21T12:02:41;3.77;;;2.77;;
6288;SDS011;3177;49.880;8.836;2023-11-21T12:05:09;5.93;;;2.80;;
6288;SDS011;3177;49.880;8.836;2023-11-21T12:07:41;6.03;;;2.73;;
6288;SDS011;3177;49.880;8.836;2023-11-21T12:10:10;3.37;;;3.07;;
6288;SDS011;3177;49.880;8.836;2023-11-21T12:12:42;4.57;;;3.20;;
6288;SDS011;3177;49.880;8.836;2023-11-21T12:15:10;3.07;;;2.63;;
6288;SDS011;3177;49.880;8.836;2023-11-21T12:17:37;5.43;;;3.20;;
6288;SDS011;3177;49.880;8.836;2023-11-21T12:20:05;6.03;;;3.23;;
6288;SDS011;3177;49.880;8.836;2023-11-21T12:22:39;6.27;;;3.03;;
6288;SDS011;3177;49.880;8.836;2023-11-21T12:25:06;4.27;;;2.70;;
6288;SDS011;3177;49.880;8.836;2023-11-21T12:27:33;6.57;;;3.20;;
6288;SDS011;3177;49.880;8.836;2023-11-21T12:30:02;4.97;;;3.20;;
6288;SDS011;3177;49.880;8.836;2023-11-21T12:32:29;3.60;;;2.80;;
6288;SDS011;3177;49.880;8.836;2023-11-21T12:34:57;4.00;;;2.57;;
6288;SDS011;3177;49.880;8.836;2023-11-21T12:37:25;5.77;;;3.00;;
6288;SDS011;3177;49.880;8.836;2023-11-21T12:39:53;9.70;;;2.90;;
6288;SDS011;3177;49.880;8.836;2023-11-21T12:42:22;7.03;;;3.53;;
6288;SDS011;3177;49.880;8.836;2023-11-21T12:47:43;3.27;;;2.97;;
6288;SDS011;3177;49.880;8.836;2023-11-21T12:50:10;6.17;;;3.30;;
6288;SDS011;3177;49.880;8.836;2023-11-21T12:52:40;5.27;;;3.10;;
6288;SDS011;3177;49.880;8.836;2023-11-21T12:55:09;4.93;;;3.23;;
6288;SDS011;3177;49.880;8.836;2023-11-21T12:57:40;4.67;;;2.90;;
6288;SDS011;3177;49.880;8.836;2023-11-21T13:00:08;3.30;;;2.73;;
6288;SDS011;3177;49.880;8.836;2023-11-21T13:02:40;4.83;;;2.50;;
6288;SDS011;3177;49.880;8.836;2023-11-21T13:05:09;5.00;;;3.00;;
6288;SDS011;3177;49.880;8.836;2023-11-21T13:07:46;7.00;;;3.20;;
6288;SDS011;3177;49.880;8.836;2023-11-21T13:10:14;4.33;;;2.63;;
6288;SDS011;3177;49.880;8.836;2023-11-21T13:12:42;4.00;;;3.00;;
6288;SDS011;3177;49.880;8.836;2023-11-21T13:15:13;5.43;;;2.80;;
6288;SDS011;3177;49.880;8.836;2023-11-21T13:17:42;3.90;;;3.00;;
6288;SDS011;3177;49.880;8.836;2023-11-21T13:20:12;7.03;;;3.33;;
6288;SDS011;3177;49.880;8.836;2023-11-21T13:22:44;5.90;;;3.20;;
6288;SDS011;3177;49.880;8.836;2023-11-21T13:25:11;4.80;;;3.20;;
6288;SDS011;3177;49.880;8.836;2023-11-21T13:27:39;4.30;;;3.20;;
6288;SDS011;3177;49.880;8.836;2023-11-21T13:30:08;8.73;;;2.90;;
6288;SDS011;3177;49.880;8.836;2023-11-21T13:32:35;4.07;;;3.10;;
6288;SDS011;3177;49.880;8.836;2023-11-21T13:35:03;6.17;;;3.53;;
6288;SDS011;3177;49.880;8.836;2023-11-21T13:37:34;4.73;;;3.70;;
6288;SDS011;3177;49.880;8.836;2023-11-21T13:40:01;5.13;;;3.57;;
6288;SDS011;3177;49.880;8.836;2023-11-21T13:42:39;5.33;;;3.77;;
6288;SDS011;3177;49.880;8.836;2023-11-21T13:45:07;7.30;;;3.63;;
6288;SDS011;3177;49.880;8.836;2023-11-21T13:47:34;5.33;;;3.23;;
6288;SDS011;3177;49.880;8.836;2023-11-21T13:50:03;8.13;;;3.50;;
6288;SDS011;3177;49.880;8.836;2023-11-21T13:52:34;5.77;;;3.53;;
6288;SDS011;3177;49.880;8.836;2023-11-21T13:55:02;6.17;;;4.10;;
6288;SDS011;3177;49.880;8.836;2023-11-21T13:57:36;5.00;;;3.67;;
6288;SDS011;3177;49.880;8.836;2023-11-21T14:00:04;7.63;;;3.90;;
6288;SDS011;3177;49.880;8.836;2023-11-21T14:02:36;4.83;;;3.47;;
6288;SDS011;3177;49.880;8.836;2023-11-21T14:05:07;4.97;;;3.43;;
6288;SDS011;3177;49.880;8.836;2023-11-21T14:07:37;4.27;;;3.10;;
6288;SDS011;3177;49.880;8.836;2023-11-21T14:10:05;6.47;;;3.57;;
6288;SDS011;3177;49.880;8.836;2023-11-21T14:12:38;4.73;;;3.50;;
6288;SDS011;3177;49.880;8.836;2023-11-21T14:15:08;5.60;;;3.50;;
6288;SDS011;3177;49.880;8.836;2023-11-21T14:17:36;5.40;;;3.20;;
6288;SDS011;3177;49.880;8.836;2023-11-21T14:20:06;5.10;;;3.20;;
6288;SDS011;3177;49.880;8.836;2023-11-21T14:22:41;3.67;;;2.80;;
6288;SDS011;3177;49.880;8.836;2023-11-21T14:25:08;4.23;;;3.37;;
6288;SDS011;3177;49.880;8.836;2023-11-21T14:27:37;5.43;;;3.33;;
6288;SDS011;3177;49.880;8.836;2023-11-21T14:30:04;5.03;;;3.43;;
6288;SDS011;3177;49.880;8.836;2023-11-21T14:32:31;8.23;;;4.10;;
6288;SDS011;3177;49.880;8.836;2023-11-21T14:34:58;4.00;;;3.33;;
6288;SDS011;3177;49.880;8.836;2023-11-21T14:37:25;6.10;;;3.43;;
6288;SDS011;3177;49.880;8.836;2023-11-21T14:39:54;4.83;;;3.03;;
6288;SDS011;3177;49.880;8.836;2023-11-21T14:42:22;6.90;;;3.60;;
6288;SDS011;3177;49.880;8.836;2023-11-21T14:44:54;6.27;;;3.53;;
6288;SDS011;3177;49.880;8.836;2023-11-21T14:47:25;5.53;;;3.53;;
6288;SDS011;3177;49.880;8.836;2023-11-21T14:49:52;4.83;;;3.30;;
6288;SDS011;3177;49.880;8.836;2023-11-21T14:52:21;5.27;;;3.17;;
6288;SDS011;3177;49.880;8.836;2023-11-21T14:54:59;3.27;;;2.90;;
6288;SDS011;3177;49.880;8.836;2023-11-21T14:57:40;3.93;;;3.10;;
6288;SDS011;3177;49.880;8.836;2023-11-21T15:00:11;5.60;;;3.40;;
6288;SDS011;3177;49.880;8.836;2023-11-21T15:02:56;4.80;;;3.67;;
6288;SDS011;3177;49.880;8.836;2023-11-21T15:05:23;4.40;;;3.60;;
6288;SDS011;3177;49.880;8.836;2023-11-21T15:07:50;6.73;;;3.67;;
6288;SDS011;3177;49.880;8.836;2023-11-21T15:10:22;6.03;;;3.70;;
6288;SDS011;3177;49.880;8.836;2023-11-21T15:12:56;4.43;;;3.03;;
6288;SDS011;3177;49.880;8.836;2023-11-21T15:15:23;5.87;;;3.27;;
6288;SDS011;3177;49.880;8.836;2023-11-21T15:17:50;3.37;;;2.80;;
6288;SDS011;3177;49.880;8.836;2023-11-21T15:20:17;5.90;;;3.10;;
6288;SDS011;3177;49.880;8.836;2023-11-21T15:22:46;4.97;;;3.43;;
6288;SDS011;3177;49.880;8.836;2023-11-21T15:25:13;3.70;;;3.30;;
6288;SDS011;3177;49.880;8.836;2023-11-21T15:27:41;4.53;;;3.70;;
6288;SDS011;3177;49.880;8.836;2023-11-21T15:30:08;5.33;;;3.27;;
6288;SDS011;3177;49.880;8.836;2023-11-21T15:32:35;4.77;;;3.60;;
6288;SDS011;3177;49.880;8.836;2023-11-21T15:35:04;4.83;;;3.30;;